createdAt,value
2019-03-11T00:00:52.757Z,8.60
2019-03-11T00:01:52.744Z,8.52
2019-03-11T00:02:52.731Z,8.52
2019-03-11T00:03:52.719Z,8.47
2019-03-11T00:04:52.715Z,8.45
2019-03-11T00:05:52.689Z,8.61
2019-03-11T00:06:52.676Z,8.67
2019-03-11T00:07:52.665Z,8.65
2019-03-11T00:08:52.649Z,8.65
2019-03-11T00:09:52.635Z,8.58
2019-03-11T00:10:52.649Z,8.63
2019-03-11T00:11:52.611Z,8.54
2019-03-11T00:12:52.598Z,8.58
2019-03-11T00:13:52.582Z,8.42
2019-03-11T00:14:52.570Z,8.49
2019-03-11T00:15:52.555Z,8.46
2019-03-11T00:16:52.542Z,8.42
2019-03-11T00:17:52.528Z,8.45
2019-03-11T00:18:52.515Z,8.43
2019-03-11T00:19:52.503Z,8.47
2019-03-11T00:20:52.489Z,8.36
2019-03-11T00:21:52.474Z,8.54
2019-03-11T00:22:52.461Z,8.50
2019-03-11T00:23:52.450Z,8.45
2019-03-11T00:24:52.434Z,8.43
2019-03-11T00:25:52.422Z,8.46
2019-03-11T00:26:52.409Z,8.50
2019-03-11T00:27:52.395Z,8.43
2019-03-11T00:28:52.381Z,8.34
2019-03-11T00:29:52.367Z,8.36
2019-03-11T00:30:52.358Z,8.45
2019-03-11T00:31:52.343Z,8.29
2019-03-11T00:32:52.332Z,8.37
2019-03-11T00:33:52.315Z,8.36
2019-03-11T00:34:52.301Z,8.18
2019-03-11T00:35:52.286Z,8.24
2019-03-11T00:36:52.273Z,8.27
2019-03-11T00:37:52.267Z,8.14
2019-03-11T00:38:52.254Z,7.88
2019-03-11T00:39:52.243Z,7.96
2019-03-11T00:40:52.221Z,7.96
2019-03-11T00:41:52.211Z,7.94
2019-03-11T00:42:52.196Z,7.99
2019-03-11T00:43:52.181Z,7.91
2019-03-11T00:44:52.169Z,7.85
2019-03-11T00:45:52.155Z,7.88
2019-03-11T00:46:52.141Z,7.82
2019-03-11T00:48:01.524Z,7.89
2019-03-11T00:48:52.116Z,7.79
2019-03-11T00:49:52.105Z,7.70
2019-03-11T00:50:52.089Z,7.79
2019-03-11T00:51:52.076Z,7.81
2019-03-11T00:52:52.061Z,7.79
2019-03-11T00:53:52.049Z,7.77
2019-03-11T00:54:52.038Z,7.74
2019-03-11T00:55:52.022Z,7.73
2019-03-11T00:56:52.011Z,7.73
2019-03-11T00:57:51.998Z,7.63
2019-03-11T00:58:51.984Z,7.58
2019-03-11T00:59:51.969Z,7.55
2019-03-11T01:00:51.956Z,7.37
2019-03-11T01:01:51.947Z,7.47
2019-03-11T01:02:51.935Z,7.34
2019-03-11T01:03:51.929Z,7.36
2019-03-11T01:04:51.903Z,7.39
2019-03-11T01:05:51.893Z,7.44
2019-03-11T01:06:51.876Z,7.50
2019-03-11T01:07:51.864Z,7.45
2019-03-11T01:08:51.849Z,7.45
2019-03-11T01:09:51.837Z,7.45
2019-03-11T01:10:51.825Z,7.41
2019-03-11T01:11:51.811Z,7.42
2019-03-11T01:12:51.799Z,7.37
2019-03-11T01:13:51.784Z,7.37
2019-03-11T01:14:51.773Z,7.36
2019-03-11T01:15:51.762Z,7.24
2019-03-11T01:16:51.743Z,7.32
2019-03-11T01:17:51.733Z,7.23
2019-03-11T01:18:51.735Z,7.19
2019-03-11T01:19:51.706Z,7.12
2019-03-11T01:20:51.690Z,7.27
2019-03-11T01:21:51.678Z,7.51
2019-03-11T01:22:51.667Z,7.55
2019-03-11T01:23:51.649Z,7.52
2019-03-11T01:24:51.637Z,7.45
2019-03-11T01:25:51.625Z,7.48
2019-03-11T01:26:51.612Z,7.36
2019-03-11T01:27:51.597Z,7.41
2019-03-11T01:28:51.584Z,7.44
2019-03-11T01:29:51.570Z,7.42
2019-03-11T01:30:51.560Z,7.39
2019-03-11T01:31:51.544Z,7.23
2019-03-11T01:32:51.532Z,7.26
2019-03-11T01:33:51.518Z,7.09
2019-03-11T01:34:51.503Z,7.19
2019-03-11T01:35:51.489Z,7.12
2019-03-11T01:36:51.487Z,7.11
2019-03-11T01:37:51.462Z,7.00
2019-03-11T01:38:51.450Z,7.08
2019-03-11T01:39:51.438Z,7.07
2019-03-11T01:40:51.422Z,7.00
2019-03-11T01:41:51.408Z,7.07
2019-03-11T01:42:51.925Z,7.00
2019-03-11T01:43:51.388Z,7.05
2019-03-11T01:44:51.369Z,6.96
2019-03-11T01:45:51.358Z,6.99
2019-03-11T01:46:51.344Z,6.91
2019-03-11T01:47:51.330Z,6.87
2019-03-11T01:48:51.315Z,6.86
2019-03-11T01:49:51.306Z,6.81
2019-03-11T01:50:51.290Z,6.83
2019-03-11T01:51:51.276Z,6.86
2019-03-11T01:52:51.281Z,6.91
2019-03-11T01:53:51.248Z,6.82
2019-03-11T01:54:51.235Z,6.86
2019-03-11T01:55:51.221Z,6.86
2019-03-11T01:56:51.212Z,6.87
2019-03-11T01:57:51.196Z,6.82
2019-03-11T01:58:51.182Z,6.82
2019-03-11T01:59:51.168Z,6.73
2019-03-11T02:00:51.153Z,6.73
2019-03-11T02:01:51.141Z,6.63
2019-03-11T02:02:51.126Z,6.64
2019-03-11T02:03:51.115Z,6.68
2019-03-11T02:04:51.099Z,6.68
2019-03-11T02:05:51.086Z,6.61
2019-03-11T02:06:51.075Z,6.68
2019-03-11T02:07:51.060Z,6.93
2019-03-11T02:08:51.045Z,6.64
2019-03-11T02:09:51.032Z,6.91
2019-03-11T02:10:51.020Z,6.73
2019-03-11T02:11:51.004Z,6.71
2019-03-11T02:12:50.992Z,6.51
2019-03-11T02:13:50.979Z,6.48
2019-03-11T02:14:50.964Z,6.50
2019-03-11T02:15:50.950Z,6.48
2019-03-11T02:16:50.939Z,6.45
2019-03-11T02:17:50.926Z,6.35
2019-03-11T02:18:50.911Z,6.43
2019-03-11T02:19:50.895Z,6.35
2019-03-11T02:20:50.889Z,6.43
2019-03-11T02:21:50.870Z,6.27
2019-03-11T02:22:50.857Z,6.30
2019-03-11T02:23:50.840Z,6.27
2019-03-11T02:24:50.832Z,6.25
2019-03-11T02:25:50.815Z,6.21
2019-03-11T02:26:50.800Z,6.11
2019-03-11T02:27:50.789Z,6.21
2019-03-11T02:28:50.771Z,6.19
2019-03-11T02:29:50.757Z,6.20
2019-03-11T02:30:50.748Z,6.05
2019-03-11T02:31:50.731Z,5.95
2019-03-11T02:32:50.725Z,6.03
2019-03-11T02:33:50.704Z,5.98
2019-03-11T02:34:50.691Z,6.03
2019-03-11T02:35:50.680Z,5.95
2019-03-11T02:36:50.662Z,5.92
2019-03-11T02:37:50.656Z,5.95
2019-03-11T02:38:50.650Z,5.93
2019-03-11T02:39:50.622Z,5.95
2019-03-11T02:40:50.608Z,5.92
2019-03-11T02:41:50.597Z,5.90
2019-03-11T02:42:50.588Z,5.98
2019-03-11T02:43:50.571Z,6.01
2019-03-11T02:44:50.556Z,6.02
2019-03-11T02:45:50.558Z,5.95
2019-03-11T02:46:50.524Z,6.08
2019-03-11T02:47:50.510Z,6.05
2019-03-11T02:48:50.495Z,6.06
2019-03-11T02:49:50.482Z,6.05
2019-03-11T02:50:50.467Z,5.98
2019-03-11T02:51:50.453Z,6.02
2019-03-11T02:52:50.443Z,6.06
2019-03-11T02:53:50.426Z,6.05
2019-03-11T02:54:50.413Z,5.98
2019-03-11T02:55:51.192Z,5.98
2019-03-11T02:56:50.387Z,5.98
2019-03-11T02:57:50.371Z,6.10
2019-03-11T02:58:50.357Z,6.17
2019-03-11T02:59:50.344Z,6.27
2019-03-11T03:00:50.346Z,6.20
2019-03-11T03:01:50.316Z,6.38
2019-03-11T03:02:50.318Z,6.36
2019-03-11T03:03:50.291Z,6.38
2019-03-11T03:04:50.294Z,6.39
2019-03-11T03:05:50.262Z,6.36
2019-03-11T03:06:50.246Z,6.40
2019-03-11T03:07:50.238Z,6.32
2019-03-11T03:08:50.218Z,6.46
2019-03-11T03:09:50.216Z,6.65
2019-03-11T03:10:50.191Z,6.60
2019-03-11T03:11:50.177Z,6.60
2019-03-11T03:12:50.163Z,6.55
2019-03-11T03:13:50.151Z,6.54
2019-03-11T03:14:50.133Z,6.53
2019-03-11T03:15:50.120Z,6.58
2019-03-11T03:16:50.109Z,6.60
2019-03-11T03:17:50.093Z,6.43
2019-03-11T03:18:50.079Z,6.45
2019-03-11T03:19:50.064Z,6.50
2019-03-11T03:20:50.052Z,6.38
2019-03-11T03:21:50.039Z,6.54
2019-03-11T03:22:50.031Z,6.45
2019-03-11T03:23:50.008Z,6.45
2019-03-11T03:24:50.003Z,6.43
2019-03-11T03:25:49.984Z,6.46
2019-03-11T03:26:49.989Z,6.58
2019-03-11T03:27:50.151Z,6.55
2019-03-11T03:28:49.941Z,6.60
2019-03-11T03:29:49.929Z,6.61
2019-03-11T03:30:49.943Z,6.65
2019-03-11T03:31:49.987Z,6.68
2019-03-11T03:32:49.938Z,6.68
2019-03-11T03:33:49.889Z,6.87
2019-03-11T03:34:49.864Z,6.96
2019-03-11T03:35:49.844Z,7.00
2019-03-11T03:36:49.850Z,7.01
2019-03-11T03:37:49.817Z,7.15
2019-03-11T03:38:49.802Z,7.11
2019-03-11T03:39:49.789Z,7.11
2019-03-11T03:40:49.776Z,7.07
2019-03-11T03:41:49.759Z,7.11
2019-03-11T03:42:49.833Z,7.19
2019-03-11T03:43:49.733Z,7.19
2019-03-11T03:44:49.720Z,7.16
2019-03-11T03:45:49.705Z,7.29
2019-03-11T03:46:49.694Z,7.23
2019-03-11T03:47:49.679Z,7.16
2019-03-11T03:48:49.997Z,7.04
2019-03-11T03:49:49.655Z,7.08
2019-03-11T03:50:49.682Z,7.05
2019-03-11T03:51:49.626Z,6.90
2019-03-11T03:52:49.625Z,6.99
2019-03-11T03:53:49.621Z,7.07
2019-03-11T03:54:49.588Z,7.07
2019-03-11T03:55:49.577Z,7.08
2019-03-11T03:56:49.561Z,7.07
2019-03-11T03:57:49.543Z,7.08
2019-03-11T03:58:49.553Z,7.18
2019-03-11T03:59:49.515Z,7.33
2019-03-11T04:00:49.503Z,7.39
2019-03-11T04:01:49.486Z,7.42
2019-03-11T04:02:49.481Z,7.23
2019-03-11T04:03:49.458Z,7.47
2019-03-11T04:04:49.448Z,7.29
2019-03-11T04:05:49.441Z,7.34
2019-03-11T04:06:49.421Z,7.34
2019-03-11T04:07:49.405Z,7.42
2019-03-11T04:08:49.402Z,7.42
2019-03-11T04:09:49.382Z,7.41
2019-03-11T04:10:49.365Z,7.36
2019-03-11T04:11:49.352Z,7.39
2019-03-11T04:12:49.342Z,7.45
2019-03-11T04:13:49.322Z,7.45
2019-03-11T04:14:49.311Z,7.45
2019-03-11T04:15:49.294Z,7.27
2019-03-11T04:16:49.285Z,7.41
2019-03-11T04:17:49.269Z,7.66
2019-03-11T04:18:49.263Z,7.54
2019-03-11T04:19:49.285Z,7.63
2019-03-11T04:20:49.232Z,7.54
2019-03-11T04:21:49.220Z,7.42
2019-03-11T04:22:49.209Z,7.54
2019-03-11T04:23:49.187Z,7.44
2019-03-11T04:24:49.173Z,7.39
2019-03-11T04:25:49.157Z,7.44
2019-03-11T04:26:49.146Z,7.50
2019-03-11T04:27:49.145Z,7.50
2019-03-11T04:28:49.119Z,7.47
2019-03-11T04:29:49.106Z,7.45
2019-03-11T04:30:49.089Z,7.51
2019-03-11T04:31:49.078Z,7.45
2019-03-11T04:32:49.069Z,7.39
2019-03-11T04:33:49.049Z,7.45
2019-03-11T04:34:49.037Z,7.42
2019-03-11T04:35:49.022Z,7.34
2019-03-11T04:36:49.010Z,7.45
2019-03-11T04:37:48.994Z,7.52
2019-03-11T04:38:48.982Z,7.70
2019-03-11T04:39:48.966Z,7.63
2019-03-11T04:40:48.956Z,7.81
2019-03-11T04:41:48.939Z,7.79
2019-03-11T04:42:48.933Z,7.71
2019-03-11T04:43:48.914Z,7.82
2019-03-11T04:44:48.899Z,7.95
2019-03-11T04:45:48.886Z,7.86
2019-03-11T04:46:48.872Z,7.94
2019-03-11T04:47:48.869Z,7.96
2019-03-11T04:48:48.843Z,8.17
2019-03-11T04:49:48.830Z,8.03
2019-03-11T04:50:48.818Z,8.00
2019-03-11T04:51:48.805Z,7.99
2019-03-11T04:52:48.799Z,7.96
2019-03-11T04:53:48.778Z,7.96
2019-03-11T04:54:48.764Z,8.07
2019-03-11T04:55:48.750Z,8.07
2019-03-11T04:56:48.736Z,8.10
2019-03-11T04:57:48.722Z,8.14
2019-03-11T04:58:48.709Z,8.40
2019-03-11T04:59:48.775Z,8.31
2019-03-11T05:00:48.686Z,8.29
2019-03-11T05:01:48.671Z,8.24
2019-03-11T05:02:48.656Z,8.13
2019-03-11T05:03:48.642Z,8.18
2019-03-11T05:04:48.630Z,8.12
2019-03-11T05:05:48.616Z,8.18
2019-03-11T05:06:48.603Z,8.13
2019-03-11T05:07:48.590Z,8.24
2019-03-11T05:08:48.577Z,8.27
2019-03-11T05:09:48.563Z,8.28
2019-03-11T05:10:48.551Z,8.31
2019-03-11T05:11:48.535Z,8.28
2019-03-11T05:12:48.524Z,8.22
2019-03-11T05:13:48.507Z,8.13
2019-03-11T05:14:48.496Z,8.20
2019-03-11T05:15:48.482Z,8.36
2019-03-11T05:16:48.468Z,8.31
2019-03-11T05:17:48.940Z,8.31
2019-03-11T05:18:48.448Z,8.24
2019-03-11T05:19:48.431Z,8.20
2019-03-11T05:20:48.414Z,8.20
2019-03-11T05:21:48.403Z,8.12
2019-03-11T05:22:48.389Z,8.09
2019-03-11T05:23:48.376Z,8.07
2019-03-11T05:24:48.362Z,8.04
2019-03-11T05:25:48.349Z,8.09
2019-03-11T05:26:48.335Z,8.07
2019-03-11T05:27:48.321Z,8.13
2019-03-11T05:28:49.344Z,8.06
2019-03-11T05:29:48.294Z,8.27
2019-03-11T05:30:48.283Z,8.22
2019-03-11T05:31:48.269Z,8.13
2019-03-11T05:32:48.255Z,8.07
2019-03-11T05:33:48.245Z,8.18
2019-03-11T05:34:48.229Z,8.04
2019-03-11T05:35:48.217Z,8.10
2019-03-11T05:36:48.204Z,8.09
2019-03-11T05:37:48.193Z,8.09
2019-03-11T05:38:48.184Z,8.06
2019-03-11T05:39:48.162Z,8.09
2019-03-11T05:40:48.150Z,8.24
2019-03-11T05:41:48.138Z,8.17
2019-03-11T05:42:48.125Z,8.20
2019-03-11T05:43:48.109Z,8.22
2019-03-11T05:44:48.097Z,8.14
2019-03-11T05:45:48.082Z,7.99
2019-03-11T05:46:48.072Z,8.06
2019-03-11T05:47:48.062Z,8.02
2019-03-11T05:48:48.045Z,7.96
2019-03-11T05:49:48.032Z,7.92
2019-03-11T05:50:48.022Z,7.95
2019-03-11T05:51:48.004Z,8.00
2019-03-11T05:52:48.006Z,7.96
2019-03-11T05:53:47.980Z,7.92
2019-03-11T05:54:47.967Z,7.95
2019-03-11T05:55:48.009Z,8.00
2019-03-11T05:56:47.941Z,8.07
2019-03-11T05:57:47.930Z,8.18
2019-03-11T05:58:47.913Z,8.27
2019-03-11T05:59:47.898Z,8.25
2019-03-11T06:00:47.886Z,8.27
2019-03-11T06:01:47.872Z,8.12
2019-03-11T06:02:47.860Z,8.22
2019-03-11T06:03:47.848Z,8.25
2019-03-11T06:04:47.833Z,8.21
2019-03-11T06:05:47.820Z,8.10
2019-03-11T06:06:47.807Z,7.95
2019-03-11T06:07:47.793Z,8.04
2019-03-11T06:08:47.782Z,8.22
2019-03-11T06:09:47.769Z,8.27
2019-03-11T06:10:47.753Z,8.28
2019-03-11T06:11:47.741Z,8.40
2019-03-11T06:12:47.727Z,8.28
2019-03-11T06:13:47.714Z,8.27
2019-03-11T06:14:47.700Z,8.60
2019-03-11T06:15:47.686Z,8.46
2019-03-11T06:16:47.673Z,8.36
2019-03-11T06:17:47.724Z,8.46
2019-03-11T06:18:47.650Z,8.45
2019-03-11T06:19:47.633Z,8.37
2019-03-11T06:20:47.619Z,8.36
2019-03-11T06:21:47.609Z,8.27
2019-03-11T06:22:47.594Z,8.28
2019-03-11T06:23:47.579Z,8.36
2019-03-11T06:24:47.568Z,8.22
2019-03-11T06:25:47.564Z,8.31
2019-03-11T06:26:47.545Z,8.27
2019-03-11T06:27:47.526Z,8.24
2019-03-11T06:28:47.514Z,8.03
2019-03-11T06:29:47.502Z,8.21
2019-03-11T06:30:47.488Z,8.07
2019-03-11T06:31:47.475Z,7.95
2019-03-11T06:32:47.461Z,7.95
2019-03-11T06:33:47.451Z,7.95
2019-03-11T06:34:47.438Z,8.07
2019-03-11T06:35:47.425Z,8.27
2019-03-11T06:36:47.411Z,8.32
2019-03-11T06:37:47.398Z,8.29
2019-03-11T06:38:47.385Z,8.37
2019-03-11T06:39:47.374Z,8.31
2019-03-11T06:40:47.363Z,8.34
2019-03-11T06:41:47.346Z,8.37
2019-03-11T06:42:47.333Z,8.25
2019-03-11T06:43:47.321Z,7.96
2019-03-11T06:44:47.307Z,7.94
2019-03-11T06:45:47.293Z,7.95
2019-03-11T06:46:47.281Z,8.14
2019-03-11T06:47:47.269Z,8.31
2019-03-11T06:48:47.254Z,8.25
2019-03-11T06:49:47.239Z,8.10
2019-03-11T06:50:47.228Z,8.10
2019-03-11T06:51:47.214Z,7.95
2019-03-11T06:52:47.203Z,8.12
2019-03-11T06:53:47.188Z,8.20
2019-03-11T06:54:47.174Z,8.21
2019-03-11T06:55:47.164Z,8.04
2019-03-11T06:56:47.149Z,8.12
2019-03-11T06:57:47.135Z,8.07
2019-03-11T06:58:47.181Z,8.25
2019-03-11T06:59:47.108Z,8.39
2019-03-11T07:00:47.095Z,8.42
2019-03-11T07:01:47.081Z,8.46
2019-03-11T07:02:47.073Z,8.37
2019-03-11T07:03:47.055Z,8.40
2019-03-11T07:04:47.105Z,8.43
2019-03-11T07:05:47.027Z,8.37
2019-03-11T07:06:47.013Z,8.29
2019-03-11T07:07:46.997Z,8.24
2019-03-11T07:08:46.987Z,8.27
2019-03-11T07:09:46.978Z,8.28
2019-03-11T07:10:46.967Z,8.29
2019-03-11T07:11:46.945Z,8.39
2019-03-11T07:12:46.942Z,8.32
2019-03-11T07:13:46.921Z,8.27
2019-03-11T07:14:46.907Z,8.32
2019-03-11T07:15:46.892Z,8.31
2019-03-11T07:16:46.882Z,8.28
2019-03-11T07:17:46.869Z,8.31
2019-03-11T07:18:46.857Z,8.40
2019-03-11T07:19:46.841Z,8.37
2019-03-11T07:20:46.845Z,8.34
2019-03-11T07:21:46.818Z,8.31
2019-03-11T07:22:46.799Z,8.27
2019-03-11T07:23:46.788Z,8.32
2019-03-11T07:24:46.771Z,8.29
2019-03-11T07:25:46.759Z,8.29
2019-03-11T07:26:46.745Z,8.25
2019-03-11T07:27:46.733Z,8.14
2019-03-11T07:28:46.718Z,8.14
2019-03-11T07:29:46.709Z,7.99
2019-03-11T07:30:46.694Z,7.99
2019-03-11T07:31:46.681Z,8.07
2019-03-11T07:32:46.667Z,7.96
2019-03-11T07:33:46.658Z,7.99
2019-03-11T07:34:46.642Z,7.91
2019-03-11T07:35:46.628Z,7.96
2019-03-11T07:36:46.616Z,7.95
2019-03-11T07:37:46.604Z,7.96
2019-03-11T07:38:46.591Z,7.99
2019-03-11T07:39:46.577Z,8.09
2019-03-11T07:40:46.564Z,8.09
2019-03-11T07:41:46.551Z,8.20
2019-03-11T07:42:46.535Z,8.25
2019-03-11T07:43:46.523Z,8.28
2019-03-11T07:44:46.508Z,8.42
2019-03-11T07:45:46.497Z,8.37
2019-03-11T07:46:46.484Z,8.37
2019-03-11T07:47:46.519Z,8.36
2019-03-11T07:48:46.457Z,8.52
2019-03-11T07:49:46.443Z,8.49
2019-03-11T07:50:46.430Z,8.61
2019-03-11T07:51:46.416Z,8.55
2019-03-11T07:52:46.405Z,8.50
2019-03-11T07:53:46.392Z,8.68
2019-03-11T07:54:46.378Z,8.75
2019-03-11T07:55:46.368Z,8.89
2019-03-11T07:56:46.351Z,8.79
2019-03-11T07:57:46.338Z,8.73
2019-03-11T07:58:46.327Z,8.76
2019-03-11T07:59:46.312Z,8.70
2019-03-11T08:00:53.762Z,8.65
2019-03-11T08:01:46.286Z,8.64
2019-03-11T08:02:46.274Z,8.52
2019-03-11T08:03:46.261Z,8.65
2019-03-11T08:04:46.247Z,8.67
2019-03-11T08:05:46.240Z,8.57
2019-03-11T08:06:46.226Z,8.50
2019-03-11T08:07:46.212Z,8.42
2019-03-11T08:08:46.196Z,8.52
2019-03-11T08:09:46.186Z,8.63
2019-03-11T08:10:46.176Z,8.58
2019-03-11T08:11:46.157Z,8.70
2019-03-11T08:12:46.148Z,8.58
2019-03-11T08:13:46.132Z,8.60
2019-03-11T08:14:46.121Z,8.52
2019-03-11T08:15:46.105Z,8.42
2019-03-11T08:16:46.093Z,8.29
2019-03-11T08:17:46.079Z,8.28
2019-03-11T08:18:46.068Z,8.34
2019-03-11T08:19:46.055Z,8.32
2019-03-11T08:20:46.043Z,8.28
2019-03-11T08:21:46.027Z,8.28
2019-03-11T08:22:46.023Z,8.07
2019-03-11T08:23:46.005Z,7.99
2019-03-11T08:24:45.989Z,7.96
2019-03-11T08:25:45.975Z,8.07
2019-03-11T08:26:45.965Z,7.96
2019-03-11T08:27:45.949Z,7.69
2019-03-11T08:28:45.937Z,7.04
2019-03-11T08:29:45.925Z,6.73
2019-03-11T08:30:45.909Z,6.42
2019-03-11T08:31:45.895Z,6.33
2019-03-11T08:32:45.880Z,6.10
2019-03-11T08:33:45.877Z,6.19
2019-03-11T08:34:45.852Z,6.21
2019-03-11T08:35:45.840Z,6.16
2019-03-11T08:36:45.826Z,6.16
2019-03-11T08:37:45.812Z,6.16
2019-03-11T08:38:45.799Z,6.11
2019-03-11T08:39:45.783Z,5.88
2019-03-11T08:40:45.767Z,5.90
2019-03-11T08:41:45.757Z,5.73
2019-03-11T08:42:45.739Z,5.44
2019-03-11T08:43:45.726Z,5.41
2019-03-11T08:44:45.712Z,5.49
2019-03-11T08:45:45.699Z,5.55
2019-03-11T08:46:45.685Z,5.66
2019-03-11T08:47:45.667Z,5.69
2019-03-11T08:48:45.652Z,5.80
2019-03-11T08:49:45.639Z,5.83
2019-03-11T08:50:45.625Z,6.17
2019-03-11T08:51:45.607Z,6.13
2019-03-11T08:52:45.603Z,6.21
2019-03-11T08:53:45.580Z,6.54
2019-03-11T08:54:45.563Z,6.73
2019-03-11T08:55:45.549Z,6.60
2019-03-11T08:56:45.535Z,6.40
2019-03-11T08:57:45.520Z,6.19
2019-03-11T08:58:45.507Z,6.39
2019-03-11T08:59:45.495Z,6.58
2019-03-11T09:00:45.475Z,6.61
2019-03-11T09:01:45.460Z,6.69
2019-03-11T09:02:45.449Z,6.89
2019-03-11T09:03:47.823Z,7.00
2019-03-11T09:04:45.419Z,6.64
2019-03-11T09:05:45.406Z,6.75
2019-03-11T09:06:45.390Z,6.82
2019-03-11T09:07:45.374Z,6.89
2019-03-11T09:08:45.361Z,6.64
2019-03-11T09:09:45.348Z,6.73
2019-03-11T09:10:45.331Z,6.61
2019-03-11T09:11:45.317Z,6.30
2019-03-11T09:12:45.304Z,6.38
2019-03-11T09:13:45.293Z,6.43
2019-03-11T09:14:45.292Z,6.58
2019-03-11T09:15:45.259Z,6.43
2019-03-11T09:16:45.247Z,6.63
2019-03-11T09:17:45.235Z,6.75
2019-03-11T09:18:45.215Z,6.86
2019-03-11T09:19:45.203Z,7.14
2019-03-11T09:20:45.188Z,7.27
2019-03-11T09:21:45.172Z,7.29
2019-03-11T09:22:45.162Z,7.48
2019-03-11T09:23:45.146Z,7.44
2019-03-11T09:24:45.128Z,7.70
2019-03-11T09:25:45.118Z,7.27
2019-03-11T09:26:45.103Z,7.19
2019-03-11T09:27:45.088Z,6.79
2019-03-11T09:28:45.075Z,7.09
2019-03-11T09:29:45.060Z,7.12
2019-03-11T09:30:45.044Z,6.89
2019-03-11T09:31:45.031Z,6.68
2019-03-11T09:32:45.019Z,6.63
2019-03-11T09:33:45.001Z,6.79
2019-03-11T09:34:44.988Z,6.76
2019-03-11T09:35:44.975Z,6.71
2019-03-11T09:36:44.959Z,6.53
2019-03-11T09:37:44.945Z,6.64
2019-03-11T09:38:44.933Z,6.32
2019-03-11T09:39:44.982Z,6.32
2019-03-11T09:40:44.903Z,6.48
2019-03-11T09:41:44.890Z,6.51
2019-03-11T09:42:44.876Z,6.64
2019-03-11T09:43:44.862Z,6.17
2019-03-11T09:44:44.849Z,6.19
2019-03-11T09:45:44.832Z,6.02
2019-03-11T09:46:44.821Z,6.19
2019-03-11T09:47:44.804Z,6.45
2019-03-11T09:48:45.034Z,6.71
2019-03-11T09:49:44.774Z,7.01
2019-03-11T09:50:44.761Z,7.32
2019-03-11T09:51:44.746Z,7.44
2019-03-11T09:52:44.751Z,7.24
2019-03-11T09:53:44.716Z,7.50
2019-03-11T09:54:44.708Z,7.67
2019-03-11T09:55:44.694Z,7.82
2019-03-11T09:56:44.674Z,7.42
2019-03-11T09:57:44.667Z,7.34
2019-03-11T09:58:44.652Z,7.39
2019-03-11T09:59:44.632Z,7.16
2019-03-11T10:00:44.628Z,7.41
2019-03-11T10:01:44.616Z,7.37
2019-03-11T10:02:52.542Z,7.51
2019-03-11T10:03:44.577Z,7.33
2019-03-11T10:04:44.564Z,7.62
2019-03-11T10:05:44.550Z,7.94
2019-03-11T10:06:44.541Z,8.09
2019-03-11T10:07:44.558Z,8.24
2019-03-11T10:08:44.509Z,8.40
2019-03-11T10:09:44.496Z,8.75
2019-03-11T10:10:44.482Z,8.71
2019-03-11T10:11:44.470Z,8.68
2019-03-11T10:12:44.557Z,8.73
2019-03-11T10:13:44.441Z,8.78
2019-03-11T10:14:44.428Z,8.94
2019-03-11T10:15:44.415Z,8.97
2019-03-11T10:16:44.403Z,9.00
2019-03-11T10:17:44.390Z,8.64
2019-03-11T10:18:44.375Z,8.79
2019-03-11T10:19:44.364Z,8.78
2019-03-11T10:20:44.352Z,8.96
2019-03-11T10:21:44.336Z,9.20
2019-03-11T10:22:44.324Z,9.13
2019-03-11T10:23:44.311Z,9.24
2019-03-11T10:24:44.301Z,9.23
2019-03-11T10:25:44.288Z,9.16
2019-03-11T10:26:44.276Z,9.13
2019-03-11T10:27:44.263Z,8.25
2019-03-11T10:28:44.253Z,7.94
2019-03-11T10:29:44.233Z,7.58
2019-03-11T10:30:44.223Z,7.69
2019-03-11T10:31:44.235Z,7.67
2019-03-11T10:32:44.195Z,7.11
2019-03-11T10:33:44.186Z,7.00
2019-03-11T10:34:44.170Z,6.82
2019-03-11T10:35:44.156Z,6.50
2019-03-11T10:36:44.144Z,6.13
2019-03-11T10:37:44.130Z,5.88
2019-03-11T10:38:44.114Z,6.03
2019-03-11T10:39:44.100Z,6.17
2019-03-11T10:40:44.088Z,6.20
2019-03-11T10:41:44.075Z,6.19
2019-03-11T10:42:44.061Z,6.25
2019-03-11T10:43:44.047Z,6.19
2019-03-11T10:44:44.033Z,6.33
2019-03-11T10:45:44.018Z,6.38
2019-03-11T10:46:45.101Z,6.55
2019-03-11T10:47:43.988Z,6.54
2019-03-11T10:48:43.977Z,6.51
2019-03-11T10:49:43.960Z,6.72
2019-03-11T10:50:43.988Z,7.00
2019-03-11T10:51:43.945Z,7.32
2019-03-11T10:52:43.922Z,7.34
2019-03-11T10:53:43.904Z,7.47
2019-03-11T10:54:43.895Z,7.63
2019-03-11T10:55:43.877Z,7.71
2019-03-11T10:56:43.862Z,7.92
2019-03-11T10:57:43.846Z,8.12
2019-03-11T10:58:43.834Z,8.22
2019-03-11T10:59:43.882Z,8.18
2019-03-11T11:00:43.826Z,8.25
2019-03-11T11:01:43.791Z,8.25
2019-03-11T11:02:43.779Z,8.31
2019-03-11T11:03:43.764Z,8.10
2019-03-11T11:04:43.749Z,8.34
2019-03-11T11:05:43.738Z,8.28
2019-03-11T11:06:43.726Z,8.40
2019-03-11T11:07:43.713Z,8.34
2019-03-11T11:08:43.697Z,8.40
2019-03-11T11:09:43.684Z,8.39
2019-03-11T11:10:43.670Z,8.29
2019-03-11T11:11:43.655Z,7.91
2019-03-11T11:12:43.642Z,7.67
2019-03-11T11:13:43.630Z,7.34
2019-03-11T11:14:43.616Z,7.07
2019-03-11T11:15:43.602Z,6.86
2019-03-11T11:16:43.589Z,6.73
2019-03-11T11:17:43.573Z,6.82
2019-03-11T11:18:43.572Z,6.73
2019-03-11T11:19:43.545Z,6.17
2019-03-11T11:20:43.531Z,5.70
2019-03-11T11:21:43.517Z,5.45
2019-03-11T11:22:43.504Z,5.35
2019-03-11T11:23:43.489Z,5.12
2019-03-11T11:24:43.478Z,4.86
2019-03-11T11:25:43.459Z,4.72
2019-03-11T11:26:43.447Z,4.69
2019-03-11T11:27:43.433Z,4.83
2019-03-11T11:28:43.418Z,4.61
2019-03-11T11:29:43.403Z,4.50
2019-03-11T11:30:43.387Z,4.54
2019-03-11T11:31:43.372Z,4.54
2019-03-11T11:32:43.355Z,4.39
2019-03-11T11:33:43.346Z,4.10
2019-03-11T11:34:43.327Z,4.25
2019-03-11T11:35:43.310Z,4.08
2019-03-11T11:36:43.298Z,3.75
2019-03-11T11:37:43.283Z,3.52
2019-03-11T11:38:43.267Z,3.53
2019-03-11T11:39:43.250Z,3.37
2019-03-11T11:40:43.237Z,3.12
2019-03-11T11:41:43.221Z,2.97
2019-03-11T11:42:43.206Z,2.87
2019-03-11T11:43:43.196Z,2.86
2019-03-11T11:44:43.170Z,2.76
2019-03-11T11:45:43.153Z,2.77
2019-03-11T11:46:43.138Z,2.63
2019-03-11T11:47:43.118Z,2.77
2019-03-11T11:48:43.102Z,2.87
2019-03-11T11:49:43.087Z,2.98
2019-03-11T11:50:43.070Z,3.26
2019-03-11T11:51:43.053Z,3.22
2019-03-11T11:52:43.038Z,3.34
2019-03-11T11:53:43.020Z,3.37
2019-03-11T11:54:43.006Z,3.46
2019-03-11T11:55:42.986Z,3.52
2019-03-11T11:56:42.971Z,3.42
2019-03-11T11:57:42.954Z,3.78
2019-03-11T11:58:42.938Z,3.77
2019-03-11T11:59:53.185Z,3.84
2019-03-11T12:00:42.908Z,3.93
2019-03-11T12:01:42.888Z,4.06
2019-03-11T12:02:42.875Z,4.13
2019-03-11T12:03:42.855Z,4.11
2019-03-11T12:04:42.840Z,4.18
2019-03-11T12:05:42.822Z,4.46
2019-03-11T12:06:42.808Z,4.49
2019-03-11T12:07:42.789Z,4.49
2019-03-11T12:08:42.775Z,4.50
2019-03-11T12:09:42.761Z,4.61
2019-03-11T12:10:42.744Z,4.57
2019-03-11T12:11:42.729Z,4.65
2019-03-11T12:12:42.718Z,4.74
2019-03-11T12:13:42.709Z,4.68
2019-03-11T12:14:42.683Z,4.79
2019-03-11T12:15:42.666Z,4.80
2019-03-11T12:16:42.651Z,4.79
2019-03-11T12:17:42.681Z,4.77
2019-03-11T12:18:42.618Z,4.72
2019-03-11T12:19:42.604Z,4.77
2019-03-11T12:20:42.590Z,4.72
2019-03-11T12:21:42.576Z,4.72
2019-03-11T12:22:42.900Z,4.84
2019-03-11T12:23:46.555Z,4.80
2019-03-11T12:24:42.528Z,4.86
2019-03-11T12:25:42.512Z,4.91
2019-03-11T12:26:42.497Z,5.09
2019-03-11T12:27:53.138Z,5.12
2019-03-11T12:28:42.468Z,5.22
2019-03-11T12:29:42.454Z,5.29
2019-03-11T12:30:42.440Z,5.33
2019-03-11T12:31:42.423Z,5.42
2019-03-11T12:32:42.425Z,5.51
2019-03-11T12:33:42.392Z,5.67
2019-03-11T12:34:42.380Z,5.66
2019-03-11T12:35:42.367Z,5.74
2019-03-11T12:36:42.350Z,5.74
2019-03-11T12:37:42.338Z,5.98
2019-03-11T12:38:42.324Z,5.95
2019-03-11T12:39:42.309Z,6.06
2019-03-11T12:40:42.293Z,6.02
2019-03-11T12:41:42.281Z,6.10
2019-03-11T12:42:42.265Z,5.88
2019-03-11T12:43:42.248Z,5.98
2019-03-11T12:44:42.232Z,5.85
2019-03-11T12:45:42.218Z,5.90
2019-03-11T12:46:42.206Z,5.92
2019-03-11T12:47:42.239Z,5.83
2019-03-11T12:48:42.176Z,5.92
2019-03-11T12:49:42.161Z,5.93
2019-03-11T12:50:42.153Z,5.95
2019-03-11T12:51:49.874Z,6.03
2019-03-11T12:52:42.116Z,6.02
2019-03-11T12:53:42.106Z,5.98
2019-03-11T12:54:42.086Z,6.06
2019-03-11T12:55:42.075Z,5.98
2019-03-11T12:56:42.058Z,6.06
2019-03-11T12:57:42.046Z,5.99
2019-03-11T12:58:42.149Z,6.08
2019-03-11T12:59:42.013Z,6.13
2019-03-11T13:00:42.006Z,6.24
2019-03-11T13:01:41.988Z,6.24
2019-03-11T13:02:41.973Z,6.03
2019-03-11T13:03:41.955Z,6.17
2019-03-11T13:04:41.941Z,6.25
2019-03-11T13:05:41.927Z,6.24
2019-03-11T13:06:41.913Z,6.45
2019-03-11T13:07:41.901Z,6.55
2019-03-11T13:08:41.892Z,6.58
2019-03-11T13:09:41.871Z,6.58
2019-03-11T13:10:41.862Z,6.60
2019-03-11T13:11:41.844Z,6.69
2019-03-11T13:12:41.829Z,6.69
2019-03-11T13:13:41.824Z,6.91
2019-03-11T13:14:41.800Z,7.01
2019-03-11T13:15:41.791Z,7.11
2019-03-11T13:16:41.777Z,7.16
2019-03-11T13:17:41.759Z,7.39
2019-03-11T13:18:41.749Z,7.54